Edmonton Stony Plain Alta., Canada
Current Conditions -  °F | °C
As of 8:00 PM on Friday 24 Oct 2014 (Local Time) from CWSE Reporting Station
Scattered Clouds Scattered Clouds  
Wind Chill: 40°   Ceiling: Unl
Heat Index: 44°   Visibility: 15mi
Dew Point: 23°   Wind: 7mph
Humidity: 43%   Direction: 250°WSW
Pressure: 29.91"   Gusts: NA
Location:  53.53°N, 114.1°W
Report Text: CWSE 250200Z 25006KT 15SM SCT025 SCT089 07/M05 A2991 RMK SLP140 LAST OBS/NEXT 251100Z T00671052 WSI/SWOB
Loading
Personal Weather Stations






























Interactive Weather Map
Tropical Storm Tracking
New forecast layout! Learn more

10-Day Weather Forecast

Advertisements
Track Severe Weather on mobile